Time;durP1;ratioP1;P1;durP2;ratioP2;P2;SDS_P1;SDS_P2;PMS_P1;PMS_P2;Temp;Humidity;BMP_temperature;BMP_pressure;BME280_temperature;BME280_humidity;BME280_pressure;Samples;Min_cycle;Max_cycle;Signal;HPM_P1;HPM_P2
2023/04/18 00:01:08;;;;;;;;;;;;;;;12.63;45.40;101383.56;4942728;28;7158;-77
2023/04/18 00:03:36;;;;;;;;;;;;;;;12.59;45.51;101386.78;4959412;28;6996;-77
2023/04/18 00:06:02;;;;;;;;;;;;;;;12.55;45.78;101382.25;4932245;28;7049;-77
2023/04/18 00:08:28;;;;;;;;;;;;;;;12.53;45.89;101383.00;4948319;28;6844;-76
2023/04/18 00:10:53;;;;;;;;;;;;;;;12.49;45.92;101376.78;4944382;28;6911;-77
2023/04/18 00:13:19;;;;;;;;;;;;;;;12.44;45.53;101375.63;4940681;28;7282;-76
2023/04/18 00:15:45;;;;;;;;;;;;;;;12.40;46.03;101383.97;4943427;28;6788;-77
2023/04/18 00:18:15;;;;;;;;;;;;;;;12.34;46.13;101380.25;4943716;28;7266;-76
2023/04/18 00:20:41;;;;;;;;;;;;;;;12.28;46.09;101374.78;4946079;28;8622;-77
2023/04/18 00:23:07;;;;;;;;;;;;;;;12.25;46.51;101369.44;4938660;28;7123;-76
2023/04/18 00:25:32;;;;;;;;;;;;;;;12.22;46.18;101364.16;4940143;28;7844;-77
2023/04/18 00:27:58;;;;;;;;;;;;;;;12.20;46.37;101369.19;4944009;28;6792;-76
2023/04/18 00:30:24;;;;;;;;;;;;;;;12.18;46.40;101364.78;4941909;28;6980;-76
2023/04/18 00:32:49;;;;;;;;;;;;;;;12.14;45.91;101361.16;4944871;28;7045;-76
2023/04/18 00:35:15;;;;;;;;;;;;;;;12.12;45.91;101357.63;4944310;28;7309;-76
2023/04/18 00:37:41;;;;;;;;;;;;;;;12.11;46.12;101370.38;4943475;28;7167;-76
2023/04/18 00:40:07;;;;;;;;;;;;;;;12.08;45.95;101361.69;4943953;28;7416;-75
2023/04/18 00:42:33;;;;;;;;;;;;;;;12.07;46.23;101362.50;4960812;28;7048;-76
2023/04/18 00:44:58;;;;;;;;;;;;;;;12.04;46.06;101358.84;4958808;28;7842;-75
2023/04/18 00:47:24;;;;;;;;;;;;;;;12.03;45.79;101357.09;4957007;28;7861;-75
2023/04/18 00:49:50;;;;;;;;;;;;;;;12.03;45.70;101355.38;4942668;28;7829;-75
2023/04/18 00:52:17;;;;;;;;;;;;;;;12.01;45.84;101356.97;4940378;28;7119;-75
2023/04/18 00:54:43;;;;;;;;;;;;;;;12.01;45.59;101353.50;4929171;28;9028;-76
2023/04/18 00:57:11;;;;;;;;;;;;;;;12.00;45.86;101359.44;4942178;28;7142;-76
2023/04/18 00:59:37;;;;;;;;;;;;;;;11.96;45.76;101363.50;4941163;28;6804;-76
2023/04/18 01:02:03;;;;;;;;;;;;;;;11.92;45.72;101357.28;4955311;28;6962;-76
2023/04/18 01:04:31;;;;;;;;;;;;;;;11.89;45.79;101354.56;4943706;28;7139;-75
2023/04/18 01:06:57;;;;;;;;;;;;;;;11.88;45.80;101352.78;4936110;28;6976;-76
2023/04/18 01:09:24;;;;;;;;;;;;;;;11.88;45.50;101346.75;4943402;28;7556;-76
2023/04/18 01:11:50;;;;;;;;;;;;;;;11.87;45.31;101352.69;4942346;28;6840;-75
2023/04/18 01:14:19;;;;;;;;;;;;;;;11.87;45.61;101347.56;4943523;28;6963;-76
2023/04/18 01:16:45;;;;;;;;;;;;;;;11.86;45.54;101356.97;4955765;28;7002;-76
2023/04/18 01:19:11;;;;;;;;;;;;;;;11.85;45.12;101344.91;4939357;28;7043;-75
2023/04/18 01:21:40;;;;;;;;;;;;;;;11.84;44.99;101356.00;4939715;28;7481;-75
2023/04/18 01:24:11;;;;;;;;;;;;;;;11.82;45.06;101342.16;4946469;28;6820;-75
2023/04/18 01:26:37;;;;;;;;;;;;;;;11.80;45.42;101341.19;4943024;28;6820;-75
2023/04/18 01:29:03;;;;;;;;;;;;;;;11.77;45.02;101344.44;4959248;28;6776;-75
2023/04/18 01:31:29;;;;;;;;;;;;;;;11.75;45.18;101330.63;4923157;28;7301;-75
2023/04/18 01:33:55;;;;;;;;;;;;;;;11.72;44.98;101327.00;4938072;28;7328;-75
2023/04/18 01:36:20;;;;;;;;;;;;;;;11.71;45.14;101335.50;4939090;28;7007;-75
2023/04/18 01:38:46;;;;;;;;;;;;;;;11.69;45.10;101334.53;4935087;28;6802;-75
2023/04/18 01:41:11;;;;;;;;;;;;;;;11.67;45.18;101329.31;4958092;28;6957;-75
2023/04/18 01:43:37;;;;;;;;;;;;;;;11.64;45.05;101326.56;4944341;28;8092;-75
2023/04/18 01:46:03;;;;;;;;;;;;;;;11.60;44.97;101325.50;4942041;28;6797;-75
2023/04/18 01:48:28;;;;;;;;;;;;;;;11.56;45.12;101321.00;4937507;28;7235;-75
2023/04/18 01:50:54;;;;;;;;;;;;;;;11.51;45.22;101324.94;4941427;28;6765;-75
2023/04/18 01:53:20;;;;;;;;;;;;;;;11.44;45.11;101318.59;4940250;28;6788;-75
2023/04/18 01:55:49;;;;;;;;;;;;;;;11.38;44.94;101318.22;4942740;28;6773;-75
2023/04/18 01:58:15;;;;;;;;;;;;;;;11.33;45.39;101324.75;4958522;28;7046;-75
2023/04/18 02:00:40;;;;;;;;;;;;;;;11.29;44.96;101320.22;4957983;28;7190;-75
2023/04/18 02:03:06;;;;;;;;;;;;;;;11.24;45.41;101318.28;4940833;28;6905;-75
2023/04/18 02:05:31;;;;;;;;;;;;;;;11.21;45.88;101323.25;4955696;28;6992;-75
2023/04/18 02:07:58;;;;;;;;;;;;;;;11.17;45.59;101318.69;4926159;28;6949;-75
2023/04/18 02:10:23;;;;;;;;;;;;;;;11.14;45.66;101310.81;4942453;28;7163;-75
2023/04/18 02:12:49;;;;;;;;;;;;;;;11.13;45.79;101310.72;4958983;28;6821;-75
2023/04/18 02:15:14;;;;;;;;;;;;;;;11.12;46.00;101315.00;4941175;28;7391;-75
2023/04/18 02:17:40;;;;;;;;;;;;;;;11.11;45.79;101320.91;4942366;28;7231;-75
2023/04/18 02:20:07;;;;;;;;;;;;;;;11.07;45.83;101312.13;4937398;28;6784;-75
2023/04/18 02:22:32;;;;;;;;;;;;;;;11.06;46.11;101315.50;4942227;28;7245;-75
2023/04/18 02:24:58;;;;;;;;;;;;;;;11.04;45.88;101316.19;4923966;28;9394;-75
2023/04/18 02:27:23;;;;;;;;;;;;;;;11.01;46.30;101314.31;4958670;28;6784;-75
2023/04/18 02:29:49;;;;;;;;;;;;;;;10.98;46.17;101311.59;4940933;28;6772;-75
2023/04/18 02:32:15;;;;;;;;;;;;;;;10.95;46.26;101313.94;4940119;28;7159;-75
2023/04/18 02:34:40;;;;;;;;;;;;;;;10.92;46.67;101317.22;4940541;28;6983;-75
2023/04/18 02:37:06;;;;;;;;;;;;;;;10.91;46.57;101323.16;4959303;28;6941;-75
2023/04/18 02:39:32;;;;;;;;;;;;;;;10.89;46.83;101317.00;4943485;28;6764;-75
2023/04/18 02:41:57;;;;;;;;;;;;;;;10.87;46.54;101322.88;4943401;28;6828;-74
2023/04/18 02:44:23;;;;;;;;;;;;;;;10.84;46.74;101323.56;4944944;28;7032;-73
2023/04/18 02:46:49;;;;;;;;;;;;;;;10.80;46.50;101322.47;4953373;28;6939;-75
2023/04/18 02:49:14;;;;;;;;;;;;;;;10.76;47.01;101320.50;4941430;28;6848;-75
2023/04/18 02:51:40;;;;;;;;;;;;;;;10.73;47.09;101320.31;4941943;28;7879;-75
2023/04/18 02:54:05;;;;;;;;;;;;;;;10.70;47.38;101322.69;4940560;28;6768;-75
2023/04/18 02:56:32;;;;;;;;;;;;;;;10.65;47.37;101322.41;4944220;28;7230;-75
2023/04/18 02:58:58;;;;;;;;;;;;;;;10.61;47.59;101315.31;4953121;28;6788;-75
2023/04/18 03:01:23;;;;;;;;;;;;;;;10.56;47.89;101315.00;4942171;28;6871;-75
2023/04/18 03:03:49;;;;;;;;;;;;;;;10.51;47.45;101313.84;4939023;28;6840;-75
2023/04/18 03:06:15;;;;;;;;;;;;;;;10.45;47.92;101312.59;4957148;28;6953;-75
2023/04/18 03:08:40;;;;;;;;;;;;;;;10.38;48.21;101317.28;4937337;28;6780;-75
2023/04/18 03:11:06;;;;;;;;;;;;;;;10.34;48.51;101317.00;4940214;28;6983;-75
2023/04/18 03:13:33;;;;;;;;;;;;;;;10.28;49.02;101317.50;4942790;28;6973;-75
2023/04/18 03:15:59;;;;;;;;;;;;;;;10.25;49.18;101325.00;4939067;28;6808;-75
2023/04/18 03:18:25;;;;;;;;;;;;;;;10.21;49.33;101320.44;4941308;28;7039;-75
2023/04/18 03:20:50;;;;;;;;;;;;;;;10.16;49.21;101321.84;4930171;28;8961;-75
2023/04/18 03:23:16;;;;;;;;;;;;;;;10.11;49.27;101322.41;4951554;28;7290;-75
2023/04/18 03:25:42;;;;;;;;;;;;;;;10.09;49.14;101325.66;4954773;28;6848;-75
2023/04/18 03:28:07;;;;;;;;;;;;;;;10.07;49.76;101329.78;4939029;28;7280;-75
2023/04/18 03:30:33;;;;;;;;;;;;;;;10.03;49.38;101325.28;4939437;28;6837;-75
2023/04/18 03:33:01;;;;;;;;;;;;;;;10.02;49.89;101318.38;4935565;28;8006;-75
2023/04/18 03:35:27;;;;;;;;;;;;;;;10.00;50.17;101320.84;4938906;28;6987;-75
2023/04/18 03:37:52;;;;;;;;;;;;;;;9.99;49.92;101326.75;4937280;28;7327;-75
2023/04/18 03:40:18;;;;;;;;;;;;;;;9.97;50.58;101320.66;4936840;28;6780;-75
2023/04/18 03:42:44;;;;;;;;;;;;;;;9.97;50.48;101323.19;4939967;28;6788;-75
2023/04/18 03:45:10;;;;;;;;;;;;;;;9.94;50.66;101313.63;4951689;28;7347;-75
2023/04/18 03:47:36;;;;;;;;;;;;;;;9.91;51.02;101315.09;4945632;28;6780;-75
2023/04/18 03:50:02;;;;;;;;;;;;;;;9.90;50.50;101323.59;4941967;28;6982;-75
2023/04/18 03:52:28;;;;;;;;;;;;;;;9.87;50.49;101319.13;4943728;28;6972;-75
2023/04/18 03:54:53;;;;;;;;;;;;;;;9.85;51.28;101319.06;4932633;28;7407;-75
2023/04/18 03:57:19;;;;;;;;;;;;;;;9.82;50.92;101316.28;4932447;28;10623;-75
2023/04/18 03:59:44;;;;;;;;;;;;;;;9.81;50.99;101322.19;4942250;28;8122;-75
2023/04/18 04:02:10;;;;;;;;;;;;;;;9.80;51.71;101319.50;4931611;28;6802;-75
2023/04/18 04:04:36;;;;;;;;;;;;;;;9.77;51.43;101325.34;4930459;28;6772;-78
2023/04/18 04:07:02;;;;;;;;;;;;;;;9.76;51.57;101327.78;4937433;28;7110;-76
2023/04/18 04:09:27;;;;;;;;;;;;;;;9.72;51.42;101322.47;4934269;28;6792;-73
2023/04/18 04:11:53;;;;;;;;;;;;;;;9.71;51.74;101324.94;4945967;28;7370;-74
2023/04/18 04:14:18;;;;;;;;;;;;;;;9.68;51.74;101324.75;4955228;28;6855;-75
2023/04/18 04:16:44;;;;;;;;;;;;;;;9.65;51.20;101321.94;4940728;28;7020;-75
2023/04/18 04:19:10;;;;;;;;;;;;;;;9.61;52.03;101325.09;4952475;28;6867;-75
2023/04/18 04:21:35;;;;;;;;;;;;;;;9.58;51.72;101329.25;4943366;28;6800;-76
2023/04/18 04:24:01;;;;;;;;;;;;;;;9.57;51.52;101318.88;4924699;28;7044;-74
2023/04/18 04:26:29;;;;;;;;;;;;;;;9.54;51.87;101326.38;4956333;28;7062;-74
2023/04/18 04:28:56;;;;;;;;;;;;;;;9.49;51.71;101323.50;4942829;28;6951;-75
2023/04/18 04:31:21;;;;;;;;;;;;;;;9.48;52.08;101334.53;4945415;28;6963;-73
2023/04/18 04:33:47;;;;;;;;;;;;;;;9.46;52.49;101328.41;4943993;28;6927;-76
2023/04/18 04:36:13;;;;;;;;;;;;;;;9.45;52.48;101336.84;4931237;28;7221;-74
2023/04/18 04:38:40;;;;;;;;;;;;;;;9.44;52.21;101324.84;4943287;28;6908;-73
2023/04/18 04:41:06;;;;;;;;;;;;;;;9.43;52.13;101338.44;4934396;28;6789;-74
2023/04/18 04:43:32;;;;;;;;;;;;;;;9.43;52.36;101341.00;4942913;28;7715;-73
2023/04/18 04:45:58;;;;;;;;;;;;;;;9.42;52.95;101345.25;4945170;28;7518;-74
2023/04/18 04:48:24;;;;;;;;;;;;;;;9.42;52.13;101345.25;4938003;28;7748;-73
2023/04/18 04:50:58;;;;;;;;;;;;;;;9.43;53.28;101346.13;4914752;28;7313;-79
2023/04/18 04:53:27;;;;;;;;;;;;;;;9.41;52.77;101351.13;4960772;28;6827;-75
2023/04/18 04:55:53;;;;;;;;;;;;;;;9.41;53.15;101352.81;4959660;28;7455;-75
2023/04/18 04:58:18;;;;;;;;;;;;;;;9.42;53.24;101352.00;4959456;28;6768;-75
2023/04/18 05:00:44;;;;;;;;;;;;;;;9.43;53.49;101369.13;4935191;28;6800;-78
2023/04/18 05:03:10;;;;;;;;;;;;;;;9.43;53.41;101358.91;4953306;28;7043;-76
2023/04/18 05:05:36;;;;;;;;;;;;;;;9.43;52.78;101361.47;4954613;28;6848;-76
2023/04/18 05:08:02;;;;;;;;;;;;;;;9.42;52.98;101362.25;4936931;28;7545;-72
2023/04/18 05:10:29;;;;;;;;;;;;;;;9.44;53.37;101365.78;4958188;28;6931;-74
2023/04/18 05:12:55;;;;;;;;;;;;;;;9.43;53.62;101359.81;4944412;28;7252;-76
2023/04/18 05:15:21;;;;;;;;;;;;;;;9.44;54.12;101358.13;4947969;28;7023;-73
2023/04/18 05:17:47;;;;;;;;;;;;;;;9.45;54.29;101363.34;4953223;28;6942;-72
2023/04/18 05:20:13;;;;;;;;;;;;;;;9.47;53.43;101371.16;4939183;28;7943;-75
2023/04/18 05:22:38;;;;;;;;;;;;;;;9.48;54.08;101362.69;4941821;28;7192;-72
2023/04/18 05:25:05;;;;;;;;;;;;;;;9.51;53.47;101368.00;4958388;28;6948;-73
2023/04/18 05:27:30;;;;;;;;;;;;;;;9.55;54.42;101364.84;4938495;28;7321;-75
2023/04/18 05:29:56;;;;;;;;;;;;;;;9.57;54.53;101368.41;4940082;28;6813;-73
2023/04/18 05:32:22;;;;;;;;;;;;;;;9.62;54.42;101367.81;4938344;28;7375;-76
2023/04/18 05:34:47;;;;;;;;;;;;;;;9.65;54.52;101370.59;4950735;28;7000;-73
2023/04/18 05:37:13;;;;;;;;;;;;;;;9.70;54.67;101372.66;4953776;28;7531;-75
2023/04/18 05:39:40;;;;;;;;;;;;;;;9.78;54.29;101375.75;4942299;28;6784;-74
2023/04/18 05:42:06;;;;;;;;;;;;;;;9.84;53.73;101380.41;4949504;28;7433;-73
2023/04/18 05:44:31;;;;;;;;;;;;;;;9.93;54.51;101387.78;4952645;28;7358;-74
2023/04/18 05:46:57;;;;;;;;;;;;;;;10.00;54.72;101385.75;4941776;28;6979;-72
2023/04/18 05:49:23;;;;;;;;;;;;;;;10.08;53.91;101386.25;4937598;28;7661;-76
2023/04/18 05:51:48;;;;;;;;;;;;;;;10.17;54.26;101385.09;4943357;28;6864;-75
2023/04/18 05:54:20;;;;;;;;;;;;;;;10.26;54.67;101398.50;4944256;28;6772;-75
2023/04/18 05:56:46;;;;;;;;;;;;;;;10.34;54.55;101392.22;4951139;28;6935;-74
2023/04/18 05:59:12;;;;;;;;;;;;;;;10.43;54.55;101399.63;4943667;28;7119;-75
2023/04/18 06:01:38;;;;;;;;;;;;;;;10.51;53.94;101400.09;4942534;28;7379;-74
2023/04/18 06:04:04;;;;;;;;;;;;;;;10.60;54.60;101410.94;4960737;28;6971;-72
2023/04/18 06:06:30;;;;;;;;;;;;;;;10.69;54.21;101411.53;4944935;28;6941;-73
2023/04/18 06:08:56;;;;;;;;;;;;;;;10.74;53.74;101413.53;4940261;28;6788;-73
2023/04/18 06:11:21;;;;;;;;;;;;;;;10.77;53.93;101411.16;4960753;28;6832;-74
2023/04/18 06:13:47;;;;;;;;;;;;;;;10.77;54.06;101414.63;4942017;28;6780;-72
2023/04/18 06:16:13;;;;;;;;;;;;;;;10.76;53.53;101417.06;4940595;28;7048;-74
2023/04/18 06:18:38;;;;;;;;;;;;;;;10.75;53.41;101408.47;4943060;28;6926;-73
2023/04/18 06:21:04;;;;;;;;;;;;;;;10.76;53.41;101420.50;4944301;28;8407;-76
2023/04/18 06:23:30;;;;;;;;;;;;;;;10.79;53.93;101417.25;4953936;28;8586;-73
2023/04/18 06:25:57;;;;;;;;;;;;;;;10.86;54.16;101424.56;4943134;28;7145;-75
2023/04/18 06:28:23;;;;;;;;;;;;;;;10.93;54.12;101426.72;4912797;29;7349;-74
2023/04/18 06:30:49;;;;;;;;;;;;;;;11.01;53.93;101426.28;4953643;28;7673;-75
2023/04/18 06:33:14;;;;;;;;;;;;;;;11.09;54.36;101422.53;4939154;28;6991;-76
2023/04/18 06:35:40;;;;;;;;;;;;;;;11.20;54.01;101420.66;4944494;28;7269;-72
2023/04/18 06:38:06;;;;;;;;;;;;;;;11.32;54.13;101431.66;4940907;28;7241;-73
2023/04/18 06:40:31;;;;;;;;;;;;;;;11.44;53.57;101420.34;4945637;28;6969;-73
2023/04/18 06:42:57;;;;;;;;;;;;;;;11.57;53.79;101428.03;4942391;28;6962;-73
2023/04/18 06:45:23;;;;;;;;;;;;;;;11.69;53.89;101430.47;4959440;28;7015;-73
2023/04/18 06:47:50;;;;;;;;;;;;;;;11.81;53.14;101428.63;4924309;29;7256;-76
2023/04/18 06:50:16;;;;;;;;;;;;;;;11.91;53.11;101430.03;4934149;28;6979;-72
2023/04/18 06:52:44;;;;;;;;;;;;;;;12.02;53.24;101433.28;4940844;28;6984;-75
2023/04/18 06:55:12;;;;;;;;;;;;;;;12.12;52.78;101429.56;4958405;28;7265;-74
2023/04/18 06:57:40;;;;;;;;;;;;;;;12.24;52.62;101434.50;4945440;28;6788;-74
2023/04/18 07:00:07;;;;;;;;;;;;;;;12.34;53.11;101431.66;4946184;28;6804;-74
2023/04/18 07:02:36;;;;;;;;;;;;;;;12.47;52.34;101432.38;4943074;28;6970;-74
2023/04/18 07:05:02;;;;;;;;;;;;;;;12.64;52.52;101439.34;4945744;28;7374;-76
2023/04/18 07:07:28;;;;;;;;;;;;;;;12.80;52.42;101440.22;4945615;28;6828;-76
2023/04/18 07:09:54;;;;;;;;;;;;;;;12.97;52.19;101443.72;4925434;28;7055;-77
2023/04/18 07:12:20;;;;;;;;;;;;;;;13.11;51.82;101441.88;4942762;28;7397;-75
2023/04/18 07:14:45;;;;;;;;;;;;;;;13.21;51.17;101453.59;4957825;28;7066;-74
2023/04/18 07:17:11;;;;;;;;;;;;;;;13.23;51.12;101440.78;4933522;28;7771;-76
2023/04/18 07:19:37;;;;;;;;;;;;;;;13.26;51.04;101444.41;4942156;28;6919;-76
2023/04/18 07:22:03;;;;;;;;;;;;;;;13.35;51.23;101446.59;4963623;28;7134;-76
2023/04/18 07:24:28;;;;;;;;;;;;;;;13.43;50.55;101444.44;4947084;28;6772;-76
2023/04/18 07:26:54;;;;;;;;;;;;;;;13.50;50.28;101448.25;4943079;28;7186;-75
2023/04/18 07:29:20;;;;;;;;;;;;;;;13.62;50.24;101446.34;4939943;28;7011;-75
2023/04/18 07:31:46;;;;;;;;;;;;;;;13.78;49.97;101442.84;4928084;28;6932;-75
2023/04/18 07:34:16;;;;;;;;;;;;;;;13.91;50.52;101440.91;4961693;28;6796;-76
2023/04/18 07:36:41;;;;;;;;;;;;;;;14.00;49.59;101438.78;4944243;28;6820;-76
2023/04/18 07:39:08;;;;;;;;;;;;;;;14.07;49.13;101433.13;4954619;28;6923;-76
2023/04/18 07:41:34;;;;;;;;;;;;;;;14.16;49.81;101431.03;4940586;28;7302;-75
2023/04/18 07:44:01;;;;;;;;;;;;;;;14.27;49.70;101438.41;4960449;28;7006;-76
2023/04/18 07:46:27;;;;;;;;;;;;;;;14.34;49.19;101439.59;4956393;28;7000;-76
2023/04/18 07:48:53;;;;;;;;;;;;;;;14.36;49.22;101436.28;4942552;28;6800;-76
2023/04/18 07:51:19;;;;;;;;;;;;;;;14.37;49.02;101439.72;4942588;28;6804;-76
2023/04/18 07:53:45;;;;;;;;;;;;;;;14.35;48.42;101434.50;4946773;28;7221;-76
2023/04/18 07:56:11;;;;;;;;;;;;;;;14.33;47.97;101436.09;4943150;28;6963;-76
2023/04/18 07:58:37;;;;;;;;;;;;;;;14.30;48.36;101434.28;4954188;28;6989;-76
2023/04/18 08:01:03;;;;;;;;;;;;;;;14.30;48.82;101433.38;4938932;28;7024;-75
2023/04/18 08:03:28;;;;;;;;;;;;;;;14.28;48.90;101435.88;4938992;28;6780;-76
2023/04/18 08:05:54;;;;;;;;;;;;;;;14.28;47.77;101445.31;4941331;28;6764;-76
2023/04/18 08:08:20;;;;;;;;;;;;;;;14.28;48.37;101443.63;4959145;28;7046;-75
2023/04/18 08:10:46;;;;;;;;;;;;;;;14.31;48.74;101437.72;4948907;28;6969;-75
2023/04/18 08:13:14;;;;;;;;;;;;;;;14.35;48.68;101439.66;4941267;28;6979;-75
2023/04/18 08:15:40;;;;;;;;;;;;;;;14.41;48.40;101432.22;4955919;28;7111;-76
2023/04/18 08:18:05;;;;;;;;;;;;;;;14.50;48.63;101436.06;4938118;28;6796;-75
2023/04/18 08:20:31;;;;;;;;;;;;;;;14.58;47.66;101435.63;4943782;28;6776;-75
2023/04/18 08:22:57;;;;;;;;;;;;;;;14.68;48.01;101429.19;4958458;28;6821;-76
2023/04/18 08:25:22;;;;;;;;;;;;;;;14.79;47.75;101427.16;4936262;28;7032;-76
2023/04/18 08:27:48;;;;;;;;;;;;;;;14.91;47.84;101432.00;4943754;28;7844;-76
2023/04/18 08:30:14;;;;;;;;;;;;;;;15.05;47.71;101429.19;4944381;28;6991;-75
2023/04/18 08:32:40;;;;;;;;;;;;;;;15.20;47.17;101429.88;4942584;28;6978;-76
2023/04/18 08:35:06;;;;;;;;;;;;;;;15.35;46.69;101431.41;4946648;28;8073;-76
2023/04/18 08:37:34;;;;;;;;;;;;;;;15.49;46.15;101437.19;4944948;28;6812;-76
2023/04/18 08:40:02;;;;;;;;;;;;;;;15.60;44.87;101430.78;4945078;28;7313;-76
2023/04/18 08:42:29;;;;;;;;;;;;;;;15.73;44.22;101429.63;4941638;28;6816;-76
2023/04/18 08:44:57;;;;;;;;;;;;;;;15.81;44.22;101429.94;4954331;28;6946;-76
2023/04/18 08:47:22;;;;;;;;;;;;;;;15.88;44.23;101425.91;4933272;28;7001;-75
2023/04/18 08:49:48;;;;;;;;;;;;;;;15.91;43.41;101426.09;4942730;28;6796;-76
2023/04/18 08:52:18;;;;;;;;;;;;;;;15.98;43.03;101427.22;4945405;28;7810;-75
2023/04/18 08:54:46;;;;;;;;;;;;;;;16.08;42.88;101431.97;4962425;28;8771;-75
2023/04/18 08:57:22;;;;;;;;;;;;;;;16.24;43.54;101421.44;4945141;28;6848;-76
2023/04/18 08:59:49;;;;;;;;;;;;;;;16.44;43.01;101420.47;4924925;28;7596;-76
2023/04/18 09:02:15;;;;;;;;;;;;;;;16.64;42.42;101416.09;4942594;28;6971;-75
2023/04/18 09:04:44;;;;;;;;;;;;;;;16.79;42.46;101416.69;4942070;28;6817;-76
2023/04/18 09:07:13;;;;;;;;;;;;;;;16.93;41.82;101419.81;4962383;28;7765;-76
2023/04/18 09:09:52;;;;;;;;;;;;;;;17.05;41.75;101422.00;4956277;28;6978;-76
2023/04/18 09:12:24;;;;;;;;;;;;;;;17.15;41.28;101420.66;4941544;28;7120;-75
2023/04/18 09:15:14;;;;;;;;;;;;;;;17.16;41.05;101413.75;4942686;28;6981;-75
2023/04/18 09:17:51;;;;;;;;;;;;;;;17.24;41.42;101420.13;4937710;28;6800;-76
2023/04/18 09:20:42;;;;;;;;;;;;;;;17.32;40.88;101415.19;4942682;28;7263;-76
2023/04/18 09:23:13;;;;;;;;;;;;;;;17.37;40.47;101415.38;4959353;28;6804;-76
2023/04/18 09:25:48;;;;;;;;;;;;;;;17.45;40.16;101421.72;4938844;28;7043;-76
2023/04/18 09:28:32;;;;;;;;;;;;;;;17.48;40.11;101427.03;4959217;28;7234;-76
2023/04/18 09:31:09;;;;;;;;;;;;;;;17.55;39.80;101421.22;4942268;28;7333;-76
2023/04/18 09:33:35;;;;;;;;;;;;;;;17.56;39.48;101422.13;4939480;28;6980;-75
2023/04/18 09:36:23;;;;;;;;;;;;;;;17.53;39.11;101432.34;4941021;28;7239;-75
2023/04/18 09:38:51;;;;;;;;;;;;;;;17.43;39.74;101433.75;4938246;28;6812;-75
2023/04/18 09:41:18;;;;;;;;;;;;;;;17.36;39.11;101430.06;4951645;28;7321;-75
2023/04/18 09:43:45;;;;;;;;;;;;;;;17.33;39.42;101432.50;4939744;28;6784;-75
2023/04/18 09:46:12;;;;;;;;;;;;;;;17.30;39.37;101424.63;4954502;28;7376;-75
2023/04/18 09:48:39;;;;;;;;;;;;;;;17.28;39.71;101426.28;4951695;28;8169;-75
2023/04/18 09:51:09;;;;;;;;;;;;;;;17.57;40.54;101406.59;4938567;28;6820;-75
2023/04/18 09:53:43;;;;;;;;;;;;;;;18.01;39.23;101415.88;4953517;28;7034;-75
2023/04/18 09:56:32;;;;;;;;;;;;;;;18.28;38.68;101415.06;4937565;28;7087;-75
2023/04/18 09:59:09;;;;;;;;;;;;;;;18.44;38.37;101422.47;4939867;28;7490;-75
2023/04/18 10:01:35;;;;;;;;;;;;;;;18.43;38.00;101415.53;4945799;28;6876;-73
2023/04/18 10:04:05;;;;;;;;;;;;;;;18.39;37.88;101423.16;4945961;28;7292;-73
2023/04/18 10:06:37;;;;;;;;;;;;;;;18.40;37.95;101422.34;4943955;28;7002;-74
2023/04/18 10:09:04;;;;;;;;;;;;;;;18.30;37.82;101424.66;4944386;28;7075;-72
2023/04/18 10:11:34;;;;;;;;;;;;;;;18.10;38.25;101421.41;4923733;28;7048;-74
2023/04/18 10:14:10;;;;;;;;;;;;;;;17.89;38.83;101430.19;4921295;28;6996;-72
2023/04/18 10:16:37;;;;;;;;;;;;;;;17.74;39.28;101427.06;4941782;28;7256;-73
2023/04/18 10:19:28;;;;;;;;;;;;;;;17.62;39.07;101425.78;4960584;28;6867;-73
2023/04/18 10:21:59;;;;;;;;;;;;;;;17.55;39.33;101435.91;4942337;28;6800;-73
2023/04/18 10:24:48;;;;;;;;;;;;;;;17.47;38.85;101435.59;4957266;28;7249;-73
2023/04/18 10:27:16;;;;;;;;;;;;;;;17.46;38.63;101437.34;4943144;28;6804;-74
2023/04/18 10:30:00;;;;;;;;;;;;;;;17.53;38.94;101432.34;4959575;28;7165;-73
2023/04/18 10:32:26;;;;;;;;;;;;;;;17.60;38.75;101435.25;4950958;28;6852;-73
2023/04/18 10:34:53;;;;;;;;;;;;;;;17.66;38.60;101428.50;4965520;28;7135;-72
2023/04/18 10:37:19;;;;;;;;;;;;;;;17.69;38.33;101423.44;4948074;28;7268;-73
2023/04/18 10:39:56;;;;;;;;;;;;;;;17.74;39.32;101429.66;4965799;28;7192;-72
2023/04/18 10:42:46;;;;;;;;;;;;;;;17.90;39.07;101429.34;4946444;28;7883;-76
2023/04/18 10:45:28;;;;;;;;;;;;;;;18.07;38.73;101416.13;4966215;28;7114;-74
2023/04/18 10:48:29;;;;;;;;;;;;;;;18.14;38.33;101418.06;4947436;28;8143;-74
2023/04/18 10:51:19;;;;;;;;;;;;;;;18.11;38.55;101407.59;4951069;28;6987;-75
2023/04/18 10:53:55;;;;;;;;;;;;;;;18.12;38.84;101414.53;4944036;28;6840;-71
2023/04/18 10:56:21;;;;;;;;;;;;;;;18.17;38.81;101418.19;4949367;28;6808;-72
2023/04/18 10:58:52;;;;;;;;;;;;;;;18.43;38.99;101419.84;4948363;28;6768;-76
2023/04/18 11:01:27;;;;;;;;;;;;;;;18.96;38.44;101414.53;4948374;28;7029;-72
2023/04/18 11:03:54;;;;;;;;;;;;;;;19.38;37.53;101409.69;4962365;28;6990;-73
2023/04/18 11:06:22;;;;;;;;;;;;;;;19.56;37.51;101407.59;4944987;28;7018;-73
2023/04/18 11:08:48;;;;;;;;;;;;;;;19.58;37.59;101402.44;4961156;28;7003;-72
2023/04/18 11:11:14;;;;;;;;;;;;;;;19.59;36.56;101390.28;4963232;28;6820;-72
2023/04/18 11:13:57;;;;;;;;;;;;;;;19.50;36.78;101396.16;4957638;28;7306;-73
2023/04/18 11:16:32;;;;;;;;;;;;;;;19.64;37.04;101396.50;4956244;28;6795;-77
2023/04/18 11:18:58;;;;;;;;;;;;;;;19.96;36.49;101386.06;4945698;28;7007;-72
2023/04/18 11:21:27;;;;;;;;;;;;;;;20.23;36.04;101395.41;4961126;28;7216;-73
2023/04/18 11:23:55;;;;;;;;;;;;;;;20.10;35.42;101389.91;4963377;28;7158;-75
2023/04/18 11:26:27;;;;;;;;;;;;;;;19.70;35.25;101394.06;4962816;28;8293;-73
2023/04/18 11:28:57;;;;;;;;;;;;;;;19.69;36.61;101400.09;4963211;28;7636;-75
2023/04/18 11:31:24;;;;;;;;;;;;;;;20.00;36.23;101380.13;4941512;28;6861;-72
2023/04/18 11:33:51;;;;;;;;;;;;;;;20.26;35.54;101391.16;4956893;28;6784;-74
2023/04/18 11:36:16;;;;;;;;;;;;;;;20.25;35.63;101391.13;4945261;28;8040;-72
2023/04/18 11:38:42;;;;;;;;;;;;;;;20.05;35.62;101391.50;4964472;28;7244;-73
2023/04/18 11:41:14;;;;;;;;;;;;;;;19.88;36.17;101384.97;4947244;28;7402;-73
2023/04/18 11:43:45;;;;;;;;;;;;;;;19.74;36.14;101389.81;4945262;28;6792;-72
2023/04/18 11:46:12;;;;;;;;;;;;;;;19.59;36.17;101380.78;4957854;28;6800;-74
2023/04/18 11:48:44;;;;;;;;;;;;;;;19.69;37.29;101389.69;4939062;28;7046;-76
2023/04/18 11:51:31;;;;;;;;;;;;;;;20.22;36.38;101385.84;4959939;28;7014;-74
2023/04/18 11:53:57;;;;;;;;;;;;;;;20.57;36.25;101383.19;4949144;28;7245;-74
2023/04/18 11:56:23;;;;;;;;;;;;;;;20.94;35.72;101378.78;4943232;28;6832;-73
2023/04/18 11:58:48;;;;;;;;;;;;;;;21.00;35.07;101388.44;4945998;28;6769;-74
2023/04/18 12:01:22;;;;;;;;;;;;;;;20.80;35.57;101381.06;4943389;28;7153;-75
2023/04/18 12:04:00;;;;;;;;;;;;;;;20.57;35.47;101391.00;4942743;28;6800;-76
2023/04/18 12:06:28;;;;;;;;;;;;;;;20.32;36.04;101382.63;4957618;28;7098;-74
2023/04/18 12:08:58;;;;;;;;;;;;;;;20.09;36.30;101382.97;4942582;28;7115;-73
2023/04/18 12:11:24;;;;;;;;;;;;;;;19.96;36.55;101388.69;4940565;28;7232;-73
2023/04/18 12:13:55;;;;;;;;;;;;;;;19.82;36.95;101386.59;4942130;28;7183;-74
2023/04/18 12:16:26;;;;;;;;;;;;;;;19.89;36.70;101385.00;4942993;28;6808;-75
2023/04/18 12:18:59;;;;;;;;;;;;;;;19.89;36.53;101381.53;4954685;28;6820;-74
2023/04/18 12:21:28;;;;;;;;;;;;;;;19.76;36.89;101389.03;4954010;28;7054;-75
2023/04/18 12:23:54;;;;;;;;;;;;;;;19.59;37.48;101398.09;4941798;28;6804;-73
2023/04/18 12:26:22;;;;;;;;;;;;;;;19.43;37.07;101390.75;4943519;28;7582;-73
2023/04/18 12:28:54;;;;;;;;;;;;;;;19.40;37.26;101382.00;4945648;28;7086;-74
2023/04/18 12:31:21;;;;;;;;;;;;;;;19.62;38.23;101393.00;4944294;28;7079;-74
2023/04/18 12:33:46;;;;;;;;;;;;;;;19.97;37.23;101388.72;4944236;28;7052;-73
2023/04/18 12:36:12;;;;;;;;;;;;;;;20.33;37.52;101381.75;4947704;28;7125;-74
2023/04/18 12:38:38;;;;;;;;;;;;;;;20.99;37.30;101385.81;4930528;28;6884;-74
2023/04/18 12:41:04;;;;;;;;;;;;;;;21.61;36.09;101376.56;4942116;28;7059;-72
2023/04/18 12:43:29;;;;;;;;;;;;;;;21.72;35.44;101377.66;4947699;28;6792;-75
2023/04/18 12:45:55;;;;;;;;;;;;;;;21.69;35.35;101374.13;4946584;28;6836;-74
2023/04/18 12:48:21;;;;;;;;;;;;;;;21.59;35.00;101379.16;4946006;28;6925;-74
2023/04/18 12:50:46;;;;;;;;;;;;;;;21.28;34.97;101372.50;4942626;28;7235;-74